sensor_id;sensor_type;location;lat;lon;timestamp;pressure;altitude;pressure_sealevel;temperature;humidity
73598;BME280;61874;48.146;11.594;2022-09-09T21:15:48;95854.88;;;14.36;82.16
73598;BME280;61874;48.146;11.594;2022-09-09T21:18:15;95853.66;;;14.42;80.92
73598;BME280;61874;48.146;11.594;2022-09-09T21:20:41;95860.97;;;14.50;81.57
73598;BME280;61874;48.146;11.594;2022-09-09T21:23:09;95867.63;;;14.53;81.74
73598;BME280;61874;48.146;11.594;2022-09-09T21:25:35;95869.50;;;14.52;81.01
73598;BME280;61874;48.146;11.594;2022-09-09T21:28:01;95879.97;;;14.54;81.99
73598;BME280;61874;48.146;11.594;2022-09-09T21:30:28;95881.06;;;14.53;81.59
73598;BME280;61874;48.146;11.594;2022-09-09T21:32:53;95893.91;;;14.56;80.28
73598;BME280;61874;48.146;11.594;2022-09-09T21:35:19;95887.56;;;14.61;81.92
73598;BME280;61874;48.146;11.594;2022-09-09T21:37:46;95895.69;;;14.69;80.94
73598;BME280;61874;48.146;11.594;2022-09-09T21:40:11;95898.06;;;14.79;79.67
73598;BME280;61874;48.146;11.594;2022-09-09T21:42:37;95892.41;;;14.98;76.51
73598;BME280;61874;48.146;11.594;2022-09-09T21:45:04;95894.47;;;15.10;77.03
73598;BME280;61874;48.146;11.594;2022-09-09T21:47:29;95894.47;;;15.18;75.61
73598;BME280;61874;48.146;11.594;2022-09-09T21:49:55;95902.41;;;15.23;76.73
73598;BME280;61874;48.146;11.594;2022-09-09T21:52:20;95893.38;;;15.19;75.45
73598;BME280;61874;48.146;11.594;2022-09-09T21:54:45;95886.56;;;15.13;77.62
73598;BME280;61874;48.146;11.594;2022-09-09T21:57:11;95892.59;;;15.02;78.16
73598;BME280;61874;48.146;11.594;2022-09-09T21:59:38;95898.44;;;14.95;79.74
73598;BME280;61874;48.146;11.594;2022-09-09T22:02:04;95899.66;;;14.80;81.34
73598;BME280;61874;48.146;11.594;2022-09-09T22:04:30;95903.28;;;14.67;82.79
73598;BME280;61874;48.146;11.594;2022-09-09T22:06:55;95903.38;;;14.53;84.33
73598;BME280;61874;48.146;11.594;2022-09-09T22:09:20;95899.72;;;14.49;83.10
73598;BME280;61874;48.146;11.594;2022-09-09T22:11:46;95892.84;;;14.35;85.38
73598;BME280;61874;48.146;11.594;2022-09-09T22:14:12;95906.75;;;14.28;86.26
73598;BME280;61874;48.146;11.594;2022-09-09T22:16:38;95901.63;;;14.18;86.42
73598;BME280;61874;48.146;11.594;2022-09-09T22:19:04;95908.13;;;14.17;86.38
73598;BME280;61874;48.146;11.594;2022-09-09T22:21:30;95893.09;;;14.16;84.36
73598;BME280;61874;48.146;11.594;2022-09-09T22:23:59;95896.69;;;14.03;85.51
73598;BME280;61874;48.146;11.594;2022-09-09T22:26:26;95889.16;;;13.91;87.04
73598;BME280;61874;48.146;11.594;2022-09-09T22:28:52;95893.22;;;13.80;87.74
73598;BME280;61874;48.146;11.594;2022-09-09T22:31:19;95891.81;;;13.82;86.52
73598;BME280;61874;48.146;11.594;2022-09-09T22:33:46;95901.00;;;13.90;85.79
73598;BME280;61874;48.146;11.594;2022-09-09T22:36:12;95892.63;;;13.92;86.96
73598;BME280;61874;48.146;11.594;2022-09-09T22:38:37;95890.09;;;13.87;86.72
73598;BME280;61874;48.146;11.594;2022-09-09T22:41:04;95881.00;;;13.74;86.84
73598;BME280;61874;48.146;11.594;2022-09-09T22:43:30;95895.09;;;13.79;86.99
73598;BME280;61874;48.146;11.594;2022-09-09T22:46:00;95894.25;;;13.70;85.83
73598;BME280;61874;48.146;11.594;2022-09-09T22:48:26;95895.66;;;13.68;86.47
73598;BME280;61874;48.146;11.594;2022-09-09T22:50:53;95900.69;;;13.61;85.06
73598;BME280;61874;48.146;11.594;2022-09-09T22:53:18;95897.03;;;13.57;86.27
73598;BME280;61874;48.146;11.594;2022-09-09T22:55:55;95892.84;;;13.51;86.01
73598;BME280;61874;48.146;11.594;2022-09-09T22:58:28;95895.69;;;13.45;85.84
73598;BME280;61874;48.146;11.594;2022-09-09T23:00:54;95898.28;;;13.37;86.02
73598;BME280;61874;48.146;11.594;2022-09-09T23:03:27;95901.47;;;13.39;86.32
73598;BME280;61874;48.146;11.594;2022-09-09T23:05:55;95902.16;;;13.44;85.55
73598;BME280;61874;48.146;11.594;2022-09-09T23:08:21;95900.47;;;13.35;86.13
73598;BME280;61874;48.146;11.594;2022-09-09T23:10:47;95903.50;;;13.33;85.12
73598;BME280;61874;48.146;11.594;2022-09-09T23:13:13;95899.09;;;13.37;85.27
73598;BME280;61874;48.146;11.594;2022-09-09T23:15:38;95893.84;;;13.32;84.97
73598;BME280;61874;48.146;11.594;2022-09-09T23:18:04;95895.84;;;13.27;84.86
73598;BME280;61874;48.146;11.594;2022-09-09T23:20:30;95893.47;;;13.11;86.48
73598;BME280;61874;48.146;11.594;2022-09-09T23:22:56;95889.69;;;13.12;86.69
73598;BME280;61874;48.146;11.594;2022-09-09T23:25:21;95880.16;;;13.06;86.00
73598;BME280;61874;48.146;11.594;2022-09-09T23:27:47;95889.50;;;13.09;86.00
73598;BME280;61874;48.146;11.594;2022-09-09T23:30:13;95881.56;;;13.04;85.90
73598;BME280;61874;48.146;11.594;2022-09-09T23:32:38;95883.28;;;13.00;85.76
73598;BME280;61874;48.146;11.594;2022-09-09T23:35:04;95882.78;;;12.98;85.99
73598;BME280;61874;48.146;11.594;2022-09-09T23:37:30;95880.09;;;12.98;86.58
73598;BME280;61874;48.146;11.594;2022-09-09T23:39:56;95887.94;;;12.94;85.84
73598;BME280;61874;48.146;11.594;2022-09-09T23:42:21;95889.03;;;12.93;85.43
73598;BME280;61874;48.146;11.594;2022-09-09T23:44:47;95884.16;;;12.95;85.73
73598;BME280;61874;48.146;11.594;2022-09-09T23:47:12;95882.66;;;13.03;85.55
73598;BME280;61874;48.146;11.594;2022-09-09T23:49:38;95876.81;;;13.01;84.92
73598;BME280;61874;48.146;11.594;2022-09-09T23:52:06;95876.03;;;12.87;85.02
73598;BME280;61874;48.146;11.594;2022-09-09T23:54:33;95873.16;;;12.83;84.59
73598;BME280;61874;48.146;11.594;2022-09-09T23:56:59;95872.38;;;12.83;85.15
73598;BME280;61874;48.146;11.594;2022-09-09T23:59:25;95876.84;;;12.87;84.73
